Terminal Aerodrome Forecast
Issued by NWS Cleveland, OH

Home | Current Version | Previous Version | Text Only | Print | Product List | Glossary Off
Versions: 1 2 3 4 5 6 7 8 9 10 11 12 13 14 15 16 17 18 19 20 21

000
FTUS41 KCLE 242336
TAFCAK
TAF
KCAK 242336Z 2500/2524 19012KT P6SM SCT045 BKN200
     FM250400 19014KT P6SM -SHRA VCTS SCT045CB BKN150
      TEMPO 2507/2511 26020G40KT 3SM TSRA BKN020CB
     FM251100 23012KT P6SM VCSH OVC020
     FM251400 24015G25KT P6SM BKN025=

USA.gov is the U.S. government's official web portal to all federal, state and local government web resources and services.